Time;durP1;ratioP1;P1;durP2;ratioP2;P2;SDS_P1;SDS_P2;PMS_P1;PMS_P2;Temp;Humidity;BMP_temperature;BMP_pressure;BME280_temperature;BME280_humidity;BME280_pressure;Samples;Min_cycle;Max_cycle;Signal;HPM_P1;HPM_P2
2021/06/05 00:00:40;;;;;;;12.70;4.20;;;17.10;62.00;;;;;;5074094;28;20016;-75
2021/06/05 00:03:07;;;;;;;13.00;3.70;;;17.10;62.60;;;;;;5073921;28;20063;-75
2021/06/05 00:05:43;;;;;;;11.00;4.28;;;17.00;63.00;;;;;;5074880;28;20025;-75
2021/06/05 00:08:11;;;;;;;8.63;3.70;;;16.90;63.60;;;;;;5073924;28;20485;-75
2021/06/05 00:10:43;;;;;;;11.13;4.10;;;16.80;63.90;;;;;;5073912;28;20047;-75
2021/06/05 00:13:20;;;;;;;7.68;3.85;;;16.80;64.30;;;;;;5073647;28;20075;-76
2021/06/05 00:15:47;;;;;;;8.75;4.05;;;16.70;64.50;;;;;;5074561;28;20031;-75
2021/06/05 00:18:13;;;;;;;13.50;4.63;;;16.60;64.60;;;;;;5073713;28;20047;-75
2021/06/05 00:20:40;;;;;;;11.32;4.35;;;16.50;65.00;;;;;;5073248;28;20090;-75
2021/06/05 00:23:09;;;;;;;9.65;4.32;;;16.40;65.50;;;;;;5072734;28;20063;-75
2021/06/05 00:25:35;;;;;;;8.45;4.15;;;16.40;66.00;;;;;;5072112;28;20031;-75
2021/06/05 00:28:02;;;;;;;8.73;4.13;;;16.30;66.20;;;;;;5072367;28;20029;-75
2021/06/05 00:30:28;;;;;;;13.48;4.50;;;16.20;66.20;;;;;;5074051;28;20118;-75
2021/06/05 00:32:54;;;;;;;9.30;3.95;;;16.20;66.50;;;;;;5085609;28;20028;-75
2021/06/05 00:35:23;;;;;;;7.35;4.10;;;16.10;66.70;;;;;;5072790;28;20024;-75
2021/06/05 00:37:50;;;;;;;11.02;4.10;;;16.10;67.00;;;;;;5080235;28;20036;-75
2021/06/05 00:40:20;;;;;;;13.30;4.68;;;16.10;67.20;;;;;;5093558;28;20370;-75
2021/06/05 00:42:46;;;;;;;11.48;4.63;;;16.10;67.60;;;;;;5072807;28;20089;-75
2021/06/05 00:45:16;;;;;;;11.13;4.30;;;16.00;67.80;;;;;;5073966;28;20029;-75
2021/06/05 00:47:42;;;;;;;9.75;4.22;;;15.90;68.20;;;;;;5073213;28;20020;-74
2021/06/05 00:50:10;;;;;;;14.15;4.88;;;15.80;68.30;;;;;;5073271;28;20103;-74
2021/06/05 00:52:36;;;;;;;12.68;4.57;;;15.80;68.50;;;;;;5072449;28;20025;-75
2021/06/05 00:55:05;;;;;;;8.32;4.05;;;15.80;69.20;;;;;;5073348;28;20063;-75
2021/06/05 00:57:31;;;;;;;14.35;4.50;;;15.80;69.70;;;;;;5071505;28;20037;-75
2021/06/05 00:59:57;;;;;;;8.82;4.07;;;15.70;69.70;;;;;;5072409;28;20112;-75
2021/06/05 01:02:22;;;;;;;13.15;4.70;;;15.70;69.80;;;;;;5073220;28;20035;-75
2021/06/05 01:04:48;;;;;;;8.68;3.95;;;15.70;69.70;;;;;;5072814;28;20103;-75
2021/06/05 01:07:24;;;;;;;13.55;4.70;;;15.60;69.70;;;;;;5073034;28;20039;-75
2021/06/05 01:10:00;;;;;;;9.43;4.53;;;15.60;70.00;;;;;;5071849;28;20367;-75
2021/06/05 01:12:36;;;;;;;10.55;4.25;;;15.50;69.90;;;;;;5071862;28;20035;-79
2021/06/05 01:15:14;;;;;;;12.50;4.90;;;15.50;70.00;;;;;;5071476;28;20024;-75
2021/06/05 01:17:46;;;;;;;12.25;4.53;;;15.40;70.20;;;;;;5072554;28;20047;-75
2021/06/05 01:20:18;;;;;;;13.75;5.43;;;15.30;70.50;;;;;;5072755;28;20013;-75
2021/06/05 01:23:08;;;;;;;12.27;4.50;;;15.30;70.80;;;;;;5072757;28;20114;-75
2021/06/05 01:26:08;;;;;;;14.05;4.85;;;15.20;71.00;;;;;;5072507;28;20028;-76
2021/06/05 01:28:36;;;;;;;10.20;4.28;;;15.20;71.00;;;;;;5071857;28;20381;-76
2021/06/05 01:31:07;;;;;;;13.40;4.22;;;15.20;71.20;;;;;;5080110;28;20074;-76
2021/06/05 01:33:35;;;;;;;9.45;4.68;;;15.10;71.50;;;;;;5079150;28;20025;-76
2021/06/05 01:36:03;;;;;;;10.57;4.25;;;15.10;72.40;;;;;;5072537;28;20090;-76
2021/06/05 01:38:32;;;;;;;10.77;4.75;;;15.00;71.90;;;;;;5072186;28;20068;-76
2021/06/05 01:40:59;;;;;;;13.48;4.95;;;15.00;72.00;;;;;;5072563;28;20033;-76
2021/06/05 01:43:28;;;;;;;11.05;4.95;;;15.00;72.30;;;;;;5071809;28;20419;-76
2021/06/05 01:45:57;;;;;;;9.57;4.72;;;15.00;72.50;;;;;;5072991;28;20024;-77
2021/06/05 01:48:23;;;;;;;16.92;5.40;;;15.00;72.70;;;;;;5072200;28;20445;-76
2021/06/05 01:50:50;;;;;;;14.30;4.35;;;15.00;72.90;;;;;;5073389;28;20101;-78
2021/06/05 01:53:30;;;;;;;13.88;5.18;;;15.00;73.30;;;;;;5084565;28;20379;-77
2021/06/05 01:56:16;;;;;;;13.35;4.72;;;15.00;73.40;;;;;;5071787;28;20421;-77
2021/06/05 01:58:43;;;;;;;12.07;4.72;;;15.10;73.10;;;;;;5071780;28;20098;-76
2021/06/05 02:01:11;;;;;;;9.93;4.63;;;15.10;73.20;;;;;;5071695;28;20078;-76
2021/06/05 02:03:38;;;;;;;11.70;4.47;;;15.20;73.00;;;;;;5072818;28;20126;-76
2021/06/05 02:06:04;;;;;;;14.30;5.57;;;15.30;73.10;;;;;;5072904;28;20032;-76
2021/06/05 02:08:32;;;;;;;13.45;4.50;;;15.40;72.90;;;;;;5076122;28;20036;-76
2021/06/05 02:11:10;;;;;;;11.27;5.18;;;15.40;72.70;;;;;;5076750;28;20035;-76
2021/06/05 02:13:45;;;;;;;13.63;4.78;;;15.50;72.60;;;;;;5075964;28;20518;-76
2021/06/05 02:16:22;;;;;;;20.23;5.88;;;15.50;72.40;;;;;;5076170;28;20028;-77
2021/06/05 02:18:55;;;;;;;10.52;4.78;;;15.60;72.30;;;;;;5075594;28;20040;-77
2021/06/05 02:21:24;;;;;;;9.77;4.75;;;15.70;72.20;;;;;;5074686;28;20478;-76
2021/06/05 02:24:13;;;;;;;10.23;4.10;;;15.80;72.20;;;;;;5076021;28;20017;-76
2021/06/05 02:26:42;;;;;;;11.50;5.00;;;15.90;72.00;;;;;;5075613;28;20056;-77
2021/06/05 02:29:10;;;;;;;9.63;3.95;;;16.00;71.80;;;;;;5074436;28;20028;-76
2021/06/05 02:31:38;;;;;;;9.85;4.60;;;16.10;71.70;;;;;;5074792;28;20063;-76
2021/06/05 02:34:08;;;;;;;10.32;4.63;;;16.10;71.70;;;;;;5075327;28;20555;-77
2021/06/05 02:36:39;;;;;;;10.40;4.38;;;16.20;71.50;;;;;;5074823;28;20035;-77
2021/06/05 02:39:06;;;;;;;11.80;4.38;;;16.30;71.30;;;;;;5075858;28;20025;-77
2021/06/05 02:41:33;;;;;;;14.45;4.50;;;16.30;71.50;;;;;;5075614;28;20048;-77
2021/06/05 02:43:59;;;;;;;9.75;4.65;;;16.40;71.40;;;;;;5075349;28;20028;-77
2021/06/05 02:46:33;;;;;;;10.95;4.22;;;16.40;71.20;;;;;;5075471;28;20078;-79
2021/06/05 02:49:27;;;;;;;9.00;3.90;;;16.60;71.10;;;;;;5075692;28;20073;-77
2021/06/05 02:52:02;;;;;;;11.10;4.20;;;16.60;70.80;;;;;;5072905;28;20177;-77
2021/06/05 02:54:28;;;;;;;8.00;4.57;;;16.70;70.70;;;;;;5075380;28;20090;-77
2021/06/05 02:56:55;;;;;;;8.48;3.65;;;16.70;70.30;;;;;;5074144;28;20048;-77
2021/06/05 02:59:22;;;;;;;8.23;4.25;;;16.70;70.30;;;;;;5075477;28;20025;-77
2021/06/05 03:01:48;;;;;;;8.80;4.13;;;16.80;70.30;;;;;;5075799;28;20037;-77
2021/06/05 03:04:14;;;;;;;10.90;4.47;;;16.80;70.60;;;;;;5073601;28;20112;-79
2021/06/05 03:06:40;;;;;;;7.10;4.10;;;16.90;70.70;;;;;;5074798;28;20368;-77
2021/06/05 03:09:08;;;;;;;8.18;4.40;;;17.00;70.50;;;;;;5075222;28;20028;-77
2021/06/05 03:11:34;;;;;;;28.58;6.05;;;17.00;70.60;;;;;;5075182;28;20123;-77
2021/06/05 03:14:02;;;;;;;14.15;5.18;;;17.10;70.80;;;;;;5057753;28;20021;-76
2021/06/05 03:16:28;;;;;;;12.68;4.50;;;17.10;71.30;;;;;;5074080;28;20020;-77
2021/06/05 03:18:53;;;;;;;14.38;5.90;;;17.10;71.00;;;;;;5073585;28;20029;-76
2021/06/05 03:21:20;;;;;;;12.82;4.90;;;17.20;70.90;;;;;;5074756;28;20118;-77
2021/06/05 03:23:47;;;;;;;11.98;5.22;;;17.30;71.10;;;;;;5081990;28;20030;-77
2021/06/05 03:26:15;;;;;;;14.45;4.68;;;17.40;71.10;;;;;;5081937;28;20082;-75
2021/06/05 03:28:41;;;;;;;9.90;3.35;;;17.50;71.40;;;;;;5089726;28;20029;-76
2021/06/05 03:31:07;;;;;;;7.43;3.75;;;17.70;69.70;;;;;;5075705;28;20020;-76
2021/06/05 03:33:32;;;;;;;7.25;3.53;;;17.90;69.00;;;;;;5090598;28;20074;-76
2021/06/05 03:35:59;;;;;;;9.52;4.63;;;18.00;68.30;;;;;;5086124;28;20024;-76
2021/06/05 03:38:28;;;;;;;8.05;4.15;;;18.20;67.80;;;;;;5090854;28;20439;-77
2021/06/05 03:40:54;;;;;;;7.55;4.00;;;18.30;67.60;;;;;;5076911;28;20021;-76
2021/06/05 03:43:23;;;;;;;7.45;4.15;;;18.40;67.30;;;;;;5074842;28;20116;-76
2021/06/05 03:45:50;;;;;;;11.95;4.15;;;18.50;66.90;;;;;;5076550;28;20044;-76
2021/06/05 03:48:17;;;;;;;11.15;4.07;;;18.60;66.80;;;;;;5074761;28;20513;-75
2021/06/05 03:50:48;;;;;;;9.60;3.97;;;18.70;66.40;;;;;;5077968;28;20095;-76
2021/06/05 03:53:15;;;;;;;7.28;4.13;;;19.00;66.40;;;;;;5074859;28;20024;-77
2021/06/05 03:55:42;;;;;;;7.93;3.40;;;19.40;66.20;;;;;;5091479;28;20025;-78
2021/06/05 03:58:10;;;;;;;9.68;3.60;;;19.90;65.80;;;;;;5082492;28;20069;-76
2021/06/05 04:00:52;;;;;;;9.90;3.72;;;20.50;64.80;;;;;;5077599;28;20028;-77
2021/06/05 04:03:18;;;;;;;6.35;3.25;;;21.00;63.00;;;;;;5089657;28;20790;-77
2021/06/05 04:05:43;;;;;;;8.60;3.65;;;21.40;61.70;;;;;;5077207;28;20075;-76
2021/06/05 04:08:11;;;;;;;11.35;3.65;;;21.40;60.10;;;;;;5087758;28;20028;-75
2021/06/05 04:10:37;;;;;;;8.07;3.75;;;21.30;59.10;;;;;;5076360;28;20016;-75
2021/06/05 04:13:07;;;;;;;7.93;3.63;;;21.20;58.90;;;;;;5077281;28;20899;-76
2021/06/05 04:15:34;;;;;;;7.35;3.92;;;21.00;58.90;;;;;;5075746;28;20027;-76
2021/06/05 04:18:01;;;;;;;8.10;3.70;;;20.80;59.50;;;;;;5078481;28;20471;-77
2021/06/05 04:20:27;;;;;;;12.07;4.15;;;20.60;59.90;;;;;;5075379;28;20279;-77
2021/06/05 04:22:53;;;;;;;9.50;4.78;;;20.70;60.20;;;;;;5075834;28;20060;-76
2021/06/05 04:25:19;;;;;;;6.95;4.13;;;20.70;60.60;;;;;;5077511;28;20039;-77
2021/06/05 04:27:45;;;;;;;10.07;4.07;;;20.80;60.90;;;;;;5078390;28;20028;-77
2021/06/05 04:30:12;;;;;;;12.90;3.97;;;20.90;61.00;;;;;;5079290;28;21316;-74
2021/06/05 04:32:38;;;;;;;8.68;4.10;;;21.10;61.20;;;;;;5077378;28;20029;-71
2021/06/05 04:35:06;;;;;;;6.80;3.97;;;21.30;60.60;;;;;;5080100;28;20036;-70
2021/06/05 04:37:32;;;;;;;8.55;4.18;;;21.40;60.00;;;;;;5074611;28;20058;-69
2021/06/05 04:39:58;;;;;;;9.25;4.22;;;21.80;60.10;;;;;;5076630;28;20021;-73
2021/06/05 04:42:23;;;;;;;9.18;4.15;;;22.20;59.40;;;;;;5079092;28;20025;-78
2021/06/05 04:44:49;;;;;;;8.00;3.70;;;23.00;59.00;;;;;;5086035;28;20032;-79
2021/06/05 04:47:15;;;;;;;6.88;3.55;;;23.70;57.40;;;;;;5090551;28;20032;-79
2021/06/05 04:49:41;;;;;;;9.07;4.03;;;24.50;55.70;;;;;;5090585;28;20021;-79
2021/06/05 04:52:06;;;;;;;6.72;3.28;;;25.30;53.90;;;;;;5073232;28;20032;-79
2021/06/05 04:54:33;;;;;;;12.30;3.70;;;25.80;52.10;;;;;;5076507;28;20494;-78
2021/06/05 04:56:58;;;;;;;6.07;3.13;;;26.10;51.00;;;;;;5079505;28;20383;-77
2021/06/05 04:59:24;;;;;;;7.80;3.05;;;26.30;50.30;;;;;;5098042;28;20024;-78
2021/06/05 05:01:50;;;;;;;6.20;2.92;;;26.40;50.00;;;;;;5099494;28;20056;-78
2021/06/05 05:04:17;;;;;;;6.03;2.97;;;26.50;49.20;;;;;;5098594;28;20017;-78
2021/06/05 05:06:43;;;;;;;6.20;2.70;;;26.40;48.40;;;;;;5108611;28;20020;-78
2021/06/05 05:09:12;;;;;;;9.65;2.80;;;26.50;47.90;;;;;;5102393;28;20058;-78
2021/06/05 05:11:38;;;;;;;5.53;2.70;;;26.50;47.20;;;;;;5104510;28;20029;-78
2021/06/05 05:14:04;;;;;;;5.35;2.55;;;26.60;47.00;;;;;;5110328;28;20369;-79
2021/06/05 05:16:30;;;;;;;5.80;2.50;;;26.80;46.90;;;;;;5102567;28;20092;-78
2021/06/05 05:18:56;;;;;;;5.07;2.20;;;27.00;46.60;;;;;;5106782;28;20031;-78
2021/06/05 05:21:23;;;;;;;8.90;2.60;;;27.20;46.40;;;;;;5102419;28;20399;-78
2021/06/05 05:23:50;;;;;;;6.40;2.45;;;27.30;46.40;;;;;;5109819;28;20495;-78
2021/06/05 05:26:17;;;;;;;5.50;2.42;;;27.30;45.80;;;;;;5085514;28;20094;-78
2021/06/05 05:28:43;;;;;;;7.85;2.40;;;27.40;45.50;;;;;;5075533;28;20039;-78
2021/06/05 05:31:12;;;;;;;7.10;2.42;;;27.60;45.30;;;;;;5072665;28;20024;-78
2021/06/05 05:33:39;;;;;;;4.72;2.30;;;27.70;44.70;;;;;;5071192;28;20123;-79
2021/06/05 05:36:14;;;;;;;7.10;2.40;;;27.70;44.80;;;;;;5072641;28;20024;-76
2021/06/05 05:38:40;;;;;;;4.32;1.90;;;27.90;45.00;;;;;;5071872;28;20041;-78
2021/06/05 05:41:08;;;;;;;6.00;2.20;;;28.20;44.40;;;;;;5071622;28;20025;-78
2021/06/05 05:43:34;;;;;;;6.50;2.33;;;28.50;43.70;;;;;;5072808;28;20039;-78
2021/06/05 05:46:00;;;;;;;5.80;2.45;;;28.90;43.30;;;;;;5071987;28;20099;-76
2021/06/05 05:48:26;;;;;;;3.35;2.03;;;29.30;43.80;;;;;;5072482;28;20033;-77
2021/06/05 05:50:52;;;;;;;4.70;2.05;;;29.70;42.50;;;;;;5070448;28;20027;-77
2021/06/05 05:53:18;;;;;;;5.05;2.20;;;30.00;41.40;;;;;;5070861;28;20131;-77
2021/06/05 05:55:44;;;;;;;6.65;2.22;;;30.00;40.90;;;;;;5072409;28;20060;-77
2021/06/05 05:58:13;;;;;;;5.18;2.13;;;29.80;40.60;;;;;;5072502;28;20453;-76
2021/06/05 06:00:43;;;;;;;7.15;2.30;;;29.50;40.40;;;;;;5072245;28;20438;-77
2021/06/05 06:03:09;;;;;;;4.15;2.20;;;29.30;40.80;;;;;;5071751;28;20020;-77
2021/06/05 06:05:35;;;;;;;6.30;1.92;;;29.10;40.90;;;;;;5071135;28;20036;-77
2021/06/05 06:08:02;;;;;;;5.65;2.20;;;28.90;41.40;;;;;;5072193;28;20043;-77
2021/06/05 06:10:28;;;;;;;6.32;2.28;;;28.70;41.10;;;;;;5072205;28;20479;-77
2021/06/05 06:12:54;;;;;;;4.95;1.92;;;28.60;41.90;;;;;;5071920;28;20099;-77
2021/06/05 06:15:23;;;;;;;6.53;2.70;;;28.70;42.00;;;;;;5072554;28;20135;-78
2021/06/05 06:17:50;;;;;;;5.70;2.20;;;28.60;42.00;;;;;;5070793;28;20039;-78
2021/06/05 06:20:28;;;;;;;4.47;2.00;;;28.50;41.60;;;;;;5071977;28;20103;-77
2021/06/05 06:22:54;;;;;;;6.22;2.25;;;28.40;41.60;;;;;;5072055;28;20024;-77
2021/06/05 06:25:22;;;;;;;6.07;2.22;;;28.30;41.50;;;;;;5074167;28;20023;-78
2021/06/05 06:27:49;;;;;;;7.03;2.20;;;28.20;40.90;;;;;;5072349;28;20042;-78
2021/06/05 06:30:21;;;;;;;6.45;2.28;;;28.10;41.40;;;;;;5071408;28;20033;-78
2021/06/05 06:32:51;;;;;;;5.63;2.30;;;28.00;41.10;;;;;;5071997;28;20039;-77
2021/06/05 06:35:22;;;;;;;8.05;2.30;;;28.10;41.30;;;;;;5071679;28;20024;-77
2021/06/05 06:37:48;;;;;;;6.45;2.25;;;28.50;42.00;;;;;;5084674;28;20039;-77
2021/06/05 06:40:16;;;;;;;4.25;2.17;;;28.70;41.80;;;;;;5108531;28;20488;-77
2021/06/05 06:42:41;;;;;;;3.85;2.13;;;28.90;41.50;;;;;;5082746;28;20092;-77
2021/06/05 06:45:08;;;;;;;7.30;2.25;;;29.20;41.50;;;;;;5086791;28;20040;-77
2021/06/05 06:47:34;;;;;;;5.97;2.65;;;29.50;41.30;;;;;;5091636;28;20385;-78
2021/06/05 06:50:00;;;;;;;9.07;4.70;;;29.60;41.20;;;;;;5093239;28;20093;-78
2021/06/05 06:52:26;;;;;;;4.90;2.25;;;29.70;40.30;;;;;;5084735;28;20470;-79
2021/06/05 06:54:53;;;;;;;4.55;2.33;;;29.60;40.00;;;;;;5096090;28;20102;-79
2021/06/05 06:57:20;;;;;;;3.42;2.30;;;29.80;40.20;;;;;;5076994;28;20058;-79
2021/06/05 06:59:46;;;;;;;4.28;2.42;;;29.90;40.50;;;;;;5087461;28;20050;-79
2021/06/05 07:02:12;;;;;;;3.53;2.00;;;30.00;40.20;;;;;;5111781;28;20034;-76
2021/06/05 07:04:38;;;;;;;5.85;2.40;;;30.10;40.70;;;;;;5092634;28;20040;-77
2021/06/05 07:07:05;;;;;;;7.22;2.50;;;30.20;40.00;;;;;;5103077;28;20525;-77
2021/06/05 07:09:32;;;;;;;7.63;2.25;;;30.30;40.00;;;;;;5097990;28;20021;-78
2021/06/05 07:11:59;;;;;;;3.83;2.10;;;30.20;39.80;;;;;;5113504;28;20037;-78
2021/06/05 07:14:25;;;;;;;3.33;2.30;;;30.20;39.40;;;;;;5096234;28;20024;-78
2021/06/05 07:16:51;;;;;;;11.10;2.90;;;30.10;39.50;;;;;;5098087;28;20039;-69
2021/06/05 07:19:17;;;;;;;3.67;2.30;;;30.00;39.20;;;;;;5097228;28;20029;-75
2021/06/05 07:21:42;;;;;;;6.28;2.30;;;29.70;39.10;;;;;;5092292;28;20054;-75
2021/06/05 07:24:09;;;;;;;7.97;5.25;;;29.60;39.50;;;;;;5086974;28;20024;-76
2021/06/05 07:26:35;;;;;;;4.80;2.40;;;29.50;39.70;;;;;;5083344;28;20089;-82
2021/06/05 07:29:11;;;;;;;3.80;2.25;;;29.40;40.00;;;;;;5101175;28;20012;-82
2021/06/05 07:31:49;;;;;;;7.20;2.13;;;29.50;40.10;;;;;;5088557;28;20028;-82
2021/06/05 07:34:16;;;;;;;5.82;2.10;;;29.50;39.80;;;;;;5107048;28;20020;-83
2021/06/05 07:36:51;;;;;;;6.45;2.30;;;29.40;39.90;;;;;;5086487;28;20024;-83
2021/06/05 07:39:20;;;;;;;8.00;2.30;;;29.50;39.80;;;;;;5090913;28;20032;-81
2021/06/05 07:41:46;;;;;;;5.38;2.75;;;29.60;39.80;;;;;;5093538;28;20112;-82
2021/06/05 07:44:12;;;;;;;6.05;2.15;;;29.70;40.20;;;;;;5089853;28;20024;-82
2021/06/05 07:46:47;;;;;;;5.50;2.20;;;29.80;39.50;;;;;;5097275;28;20034;-81
2021/06/05 07:49:14;;;;;;;6.63;2.40;;;29.60;39.90;;;;;;5091869;28;20032;-81
2021/06/05 07:51:40;;;;;;;7.60;2.42;;;29.60;40.50;;;;;;5089656;28;20115;-79
2021/06/05 07:54:06;;;;;;;5.35;2.00;;;29.60;40.40;;;;;;5092467;28;20028;-76
2021/06/05 07:56:33;;;;;;;4.72;2.22;;;29.50;39.90;;;;;;5089328;28;20046;-82
2021/06/05 07:58:59;;;;;;;5.05;2.38;;;29.30;40.30;;;;;;5089228;28;20062;-81
2021/06/05 08:01:25;;;;;;;8.95;2.55;;;29.20;40.50;;;;;;5088638;28;20055;-78
2021/06/05 08:03:52;;;;;;;6.63;2.40;;;29.20;41.00;;;;;;5085174;28;20043;-82
2021/06/05 08:06:18;;;;;;;4.18;2.38;;;29.20;40.50;;;;;;5092389;28;20028;-82
2021/06/05 08:08:43;;;;;;;4.32;2.33;;;29.30;41.10;;;;;;5085963;28;20058;-82
2021/06/05 08:11:11;;;;;;;4.40;2.13;;;29.40;41.20;;;;;;5090998;28;20032;-83
2021/06/05 08:13:37;;;;;;;6.18;2.33;;;29.50;40.60;;;;;;5091386;28;20111;-82
2021/06/05 08:16:04;;;;;;;6.18;2.00;;;29.70;39.90;;;;;;5085726;28;20116;-79
2021/06/05 08:18:30;;;;;;;6.53;2.10;;;29.70;39.50;;;;;;5099751;27;20518;-81
2021/06/05 08:21:00;;;;;;;4.07;2.33;;;29.60;39.10;;;;;;5082065;28;20083;-81
2021/06/05 08:23:29;;;;;;;6.35;2.40;;;29.70;39.20;;;;;;5090904;28;20099;-81
2021/06/05 08:25:56;;;;;;;9.23;2.13;;;29.70;39.00;;;;;;5085767;28;20112;-82
2021/06/05 08:28:24;;;;;;;5.07;2.30;;;29.80;38.70;;;;;;5098801;28;20118;-81
2021/06/05 08:30:53;;;;;;;5.97;2.10;;;29.80;38.60;;;;;;5078386;28;20020;-84
2021/06/05 08:33:19;;;;;;;3.35;2.10;;;29.70;38.70;;;;;;5104441;28;20023;-80
2021/06/05 08:35:45;;;;;;;5.28;2.28;;;29.80;39.00;;;;;;5102452;28;20032;-76
2021/06/05 08:38:14;;;;;;;5.88;2.00;;;30.00;40.40;;;;;;5089971;28;20436;-81
2021/06/05 08:40:42;;;;;;;4.47;1.90;;;30.10;39.60;;;;;;5085697;28;20116;-77
2021/06/05 08:43:10;;;;;;;3.35;2.20;;;30.20;39.40;;;;;;5087871;28;20130;-80
2021/06/05 08:45:37;;;;;;;6.22;2.05;;;30.30;38.50;;;;;;5090387;28;20055;-77
2021/06/05 08:48:06;;;;;;;4.88;1.65;;;30.40;39.00;;;;;;5088244;28;20054;-81
2021/06/05 08:50:32;;;;;;;4.25;1.90;;;30.40;38.10;;;;;;5090706;28;20502;-84
2021/06/05 08:53:20;;;;;;;7.50;3.85;;;30.40;38.00;;;;;;5093043;28;20113;-83
2021/06/05 08:55:54;;;;;;;6.57;1.88;;;30.30;37.80;;;;;;5083109;28;20032;-80
2021/06/05 08:58:36;;;;;;;6.72;2.22;;;30.20;37.90;;;;;;5104037;28;20085;-79
2021/06/05 09:01:18;;;;;;;5.50;2.03;;;30.40;38.40;;;;;;5097207;28;20028;-79
2021/06/05 09:03:59;;;;;;;5.35;1.83;;;30.90;38.60;;;;;;5090568;28;20119;-80
2021/06/05 09:06:35;;;;;;;3.08;2.00;;;31.40;37.80;;;;;;5090740;28;20015;-79
2021/06/05 09:09:16;;;;;;;6.78;3.20;;;31.60;38.10;;;;;;5097682;28;20356;-80
2021/06/05 09:11:42;;;;;;;6.22;2.10;;;31.90;36.50;;;;;;5106470;28;20015;-81
2021/06/05 09:14:08;;;;;;;3.30;1.63;;;32.10;36.10;;;;;;5095163;28;20031;-81
2021/06/05 09:16:46;;;;;;;3.08;1.65;;;32.20;35.50;;;;;;5096091;28;20020;-80
2021/06/05 09:19:13;;;;;;;5.38;1.80;;;32.30;35.20;;;;;;5097094;28;20441;-80
2021/06/05 09:21:46;;;;;;;3.70;2.10;;;32.50;35.80;;;;;;5099398;28;20460;-80
2021/06/05 09:24:26;;;;;;;4.28;2.00;;;32.50;35.10;;;;;;5094471;28;20110;-80
2021/06/05 09:27:21;;;;;;;6.05;2.05;;;32.60;34.90;;;;;;5091696;28;20409;-79
2021/06/05 09:29:53;;;;;;;5.47;1.90;;;32.80;34.60;;;;;;5073031;28;20042;-81
2021/06/05 09:32:28;;;;;;;5.15;1.70;;;32.60;35.00;;;;;;5072352;28;20032;-80
2021/06/05 09:35:23;;;;;;;3.53;1.70;;;32.30;34.90;;;;;;5071476;28;20037;-81
2021/06/05 09:37:52;;;;;;;4.53;1.90;;;31.90;35.10;;;;;;5067346;28;20131;-81
2021/06/05 09:40:30;;;;;;;3.95;1.70;;;32.00;35.20;;;;;;5072592;28;20047;-81
2021/06/05 09:43:07;;;;;;;5.13;2.05;;;32.20;34.70;;;;;;5071181;28;20046;-82
2021/06/05 09:45:37;;;;;;;3.50;1.80;;;32.30;34.30;;;;;;5072392;28;20028;-81
2021/06/05 09:48:35;;;;;;;6.35;2.22;;;32.30;34.40;;;;;;5070812;28;20115;-81
2021/06/05 09:51:05;;;;;;;3.60;1.90;;;32.60;34.10;;;;;;5071077;28;20372;-81
2021/06/05 09:53:36;;;;;;;4.05;1.70;;;32.90;34.60;;;;;;5070693;28;20025;-82
2021/06/05 09:56:26;;;;;;;3.88;2.03;;;32.90;34.70;;;;;;5070458;28;20020;-80
2021/06/05 09:59:12;;;;;;;4.53;1.83;;;32.90;34.10;;;;;;5072238;28;20029;-81
2021/06/05 10:01:38;;;;;;;6.28;2.25;;;32.70;34.00;;;;;;5071278;28;20029;-81
2021/06/05 10:04:17;;;;;;;4.13;2.15;;;32.40;33.90;;;;;;5072183;28;20020;-81
2021/06/05 10:06:55;;;;;;;10.32;3.28;;;31.90;34.60;;;;;;5071649;28;20024;-80
2021/06/05 10:09:42;;;;;;;5.28;2.22;;;31.50;35.60;;;;;;5070538;28;20060;-80
2021/06/05 10:12:14;;;;;;;4.80;2.20;;;30.90;35.40;;;;;;5070924;28;20449;-81
2021/06/05 10:15:01;;;;;;;4.20;2.15;;;30.20;35.90;;;;;;5071844;28;20031;-81
2021/06/05 10:17:36;;;;;;;3.67;2.00;;;29.60;36.50;;;;;;5071863;28;20430;-78
2021/06/05 10:20:20;;;;;;;5.53;2.00;;;29.10;37.20;;;;;;5071751;28;20052;-80
2021/06/05 10:22:49;;;;;;;3.87;2.07;;;28.40;37.40;;;;;;5072580;28;20912;-79
2021/06/05 10:25:17;;;;;;;6.28;1.95;;;28.10;38.30;;;;;;5072276;28;20024;-78
2021/06/05 10:27:46;;;;;;;4.30;1.75;;;27.80;39.50;;;;;;5073205;28;20111;-80
2021/06/05 10:30:30;;;;;;;7.60;2.08;;;27.60;39.60;;;;;;5076095;28;20027;-79
2021/06/05 10:32:59;;;;;;;7.10;2.10;;;27.60;40.40;;;;;;5074937;28;20528;-79
2021/06/05 10:35:40;;;;;;;6.65;2.28;;;28.10;40.50;;;;;;5079349;28;20031;-78
2021/06/05 10:38:08;;;;;;;6.25;2.10;;;28.90;39.40;;;;;;5074033;28;20062;-80
2021/06/05 10:40:34;;;;;;;4.90;1.80;;;29.60;39.20;;;;;;5075302;28;20104;-79
2021/06/05 10:43:02;;;;;;;3.22;1.80;;;30.40;38.20;;;;;;5087205;28;20033;-79
2021/06/05 10:45:40;;;;;;;6.32;2.30;;;30.80;37.00;;;;;;5075939;28;20025;-79
2021/06/05 10:48:14;;;;;;;4.07;1.70;;;31.10;36.60;;;;;;5088506;28;20033;-79
2021/06/05 10:50:44;;;;;;;;;;;31.30;35.60;;;;;;5075675;28;20025;-79
2021/06/05 10:53:25;;;;;;;5.50;1.33;;;31.60;36.40;;;;;;5075332;28;19919;-79
2021/06/05 10:55:58;;;;;;;5.68;2.00;;;31.50;35.30;;;;;;5075740;28;20064;-78
2021/06/05 10:58:33;;;;;;;4.72;2.42;;;31.50;35.80;;;;;;5075396;28;20025;-78
2021/06/05 11:01:03;;;;;;;3.55;1.48;;;31.50;35.50;;;;;;5074210;28;20109;-78
2021/06/05 11:03:30;;;;;;;5.03;1.90;;;31.10;36.10;;;;;;5074193;28;20035;-78
2021/06/05 11:06:08;;;;;;;2.38;1.63;;;30.70;35.30;;;;;;5074415;28;20525;-78
2021/06/05 11:08:42;;;;;;;3.30;1.75;;;30.30;35.30;;;;;;5074971;28;20025;-77
2021/06/05 11:11:07;;;;;;;4.60;1.60;;;30.00;35.90;;;;;;5074136;28;20040;-79
2021/06/05 11:13:36;;;;;;;5.00;1.75;;;29.70;36.00;;;;;;5073513;28;20021;-78
2021/06/05 11:16:07;;;;;;;5.25;1.90;;;29.50;37.30;;;;;;5075555;28;20028;-78
2021/06/05 11:18:42;;;;;;;4.35;2.20;;;29.20;37.10;;;;;;5073261;28;20039;-78
2021/06/05 11:21:41;;;;;;;4.60;1.70;;;29.00;37.20;;;;;;5075080;28;20205;-78
2021/06/05 11:24:16;;;;;;;5.75;1.90;;;28.70;37.00;;;;;;5074337;28;20032;-77
2021/06/05 11:26:48;;;;;;;4.88;2.33;;;28.60;36.90;;;;;;5074030;28;20050;-77
2021/06/05 11:29:20;;;;;;;3.25;1.55;;;28.40;36.90;;;;;;5086716;28;20020;-79
2021/06/05 11:31:55;;;;;;;8.02;2.53;;;28.40;37.50;;;;;;5074792;28;20040;-79
2021/06/05 11:34:36;;;;;;;4.78;1.60;;;28.60;38.30;;;;;;5089029;28;20020;-79
2021/06/05 11:37:05;;;;;;;3.45;1.73;;;28.70;38.40;;;;;;5074608;28;20041;-78
2021/06/05 11:39:31;;;;;;;3.40;1.55;;;28.70;37.60;;;;;;5073098;28;20024;-79
2021/06/05 11:42:18;;;;;;;2.22;1.60;;;28.60;38.40;;;;;;5073534;28;20379;-79
2021/06/05 11:44:46;;;;;;;3.08;1.63;;;28.70;37.90;;;;;;5074110;28;20027;-78
2021/06/05 11:47:20;;;;;;;5.32;1.77;;;28.80;38.80;;;;;;5072794;28;20036;-79
2021/06/05 11:50:04;;;;;;;4.20;1.70;;;28.80;38.70;;;;;;5073320;28;20031;-78
2021/06/05 11:52:30;;;;;;;4.00;2.53;;;28.80;38.50;;;;;;5074604;28;20025;-79
2021/06/05 11:55:16;;;;;;;5.85;1.63;;;28.80;38.30;;;;;;5074782;28;20024;-78
2021/06/05 11:57:43;;;;;;;5.07;1.90;;;28.70;37.70;;;;;;5073112;28;20075;-78
2021/06/05 12:00:17;;;;;;;3.55;1.48;;;28.50;38.10;;;;;;5074050;28;20039;-79
2021/06/05 12:02:46;;;;;;;6.05;1.52;;;28.30;38.00;;;;;;5074203;28;20413;-79
2021/06/05 12:05:22;;;;;;;5.75;1.83;;;28.20;38.10;;;;;;5073799;28;20466;-79
2021/06/05 12:07:49;;;;;;;2.20;1.30;;;28.10;38.20;;;;;;5073818;28;20025;-78
2021/06/05 12:10:38;;;;;;;4.63;1.73;;;28.20;38.20;;;;;;5085694;28;20040;-78
2021/06/05 12:13:15;;;;;;;5.20;1.60;;;28.20;38.30;;;;;;5089142;28;20230;-78
2021/06/05 12:15:41;;;;;;;4.05;1.70;;;28.00;37.80;;;;;;5074147;28;20040;-79
2021/06/05 12:18:23;;;;;;;5.88;1.95;;;28.00;37.80;;;;;;5073858;28;20075;-78
2021/06/05 12:20:50;;;;;;;4.40;1.50;;;28.10;37.80;;;;;;5073420;28;20672;-79
2021/06/05 12:23:34;;;;;;;5.45;1.83;;;27.90;38.30;;;;;;5072461;28;20159;-80
2021/06/05 12:26:10;;;;;;;6.07;1.67;;;27.90;38.10;;;;;;5073919;28;20063;-80
2021/06/05 12:28:39;;;;;;;4.65;1.70;;;27.90;38.70;;;;;;5073164;28;20025;-78
2021/06/05 12:31:20;;;;;;;5.00;1.50;;;27.80;38.40;;;;;;5073734;28;20021;-79
2021/06/05 12:34:00;;;;;;;5.40;2.10;;;27.60;38.60;;;;;;5073159;28;20056;-78
2021/06/05 12:36:32;;;;;;;4.00;2.00;;;27.40;38.70;;;;;;5073200;28;20028;-78
2021/06/05 12:39:18;;;;;;;4.80;2.20;;;27.20;38.90;;;;;;5073057;28;20414;-77
2021/06/05 12:41:46;;;;;;;7.30;1.60;;;27.10;39.20;;;;;;5072828;28;20044;-78
2021/06/05 12:44:16;;;;;;;5.75;1.60;;;27.10;39.40;;;;;;5073587;28;20103;-77
2021/06/05 12:46:42;;;;;;;3.67;1.40;;;27.00;39.30;;;;;;5072344;28;20067;-77
2021/06/05 12:49:15;;;;;;;2.80;1.40;;;27.10;39.00;;;;;;5075633;28;20382;-78
2021/06/05 12:51:49;;;;;;;5.47;2.20;;;27.20;38.90;;;;;;5072110;28;20020;-78
2021/06/05 12:54:42;;;;;;;4.63;1.92;;;27.30;39.10;;;;;;5075800;28;20028;-78
2021/06/05 12:57:35;;;;;;;5.38;1.60;;;27.40;39.40;;;;;;5073106;28;20120;-78
2021/06/05 13:00:28;;;;;;;5.85;1.60;;;27.40;38.70;;;;;;5073528;28;20043;-78
2021/06/05 13:02:55;;;;;;;6.50;4.20;;;27.30;38.30;;;;;;5072969;28;20021;-79